FLKS Airport Information

Runway Information
Runway 13 Length 6148 ft width 0 ft
Elevation 4498 ft Threshold ft Heading 0
Runway 31 Length 6148 ft Width 0 ft
Elevation 4536 ft Threshold ft Heading 0
Airport Frequencies
Type FLKS Name Kasama Rad Frequency 118.3 MHZ
Airport Navaids
Type NDB Name Kasama Frequency 367 KHZ
Airport Weather Information & NOTAM
ADDS - METARS form results

(1306 UTC 28 September 2022)
Data provider http://aviationweather.gov/metar/data/
 
Forecast for: FLKS (KASAMA , ZM)
Text: TAF FLKS 280400Z 2806/2912 09005KT CAVOK
Forecast period: 0600 to 0900 UTC 28 September 2022
Forecast type: FROM: standard forecast or significant change
Winds: from the E (90 degrees) at 6 MPH (5 knots; 2.6 m/s)
Visibility: 6 or more miles (10+ km)
Ceiling: unknown
Clouds: missing
Weather: NSW  (no significant weather)
Text: BECMG 2809/2813 09010KT 9999 SCT035
Forecast period: 0900 UTC 28 September 2022 to 1200 UTC 29 September 2022
Forecast type: BECOMING: Conditions expected to become as follows by 1300 UTC 28 September 2022
Winds: from the E (90 degrees) at 12 MPH (10 knots; 5.1 m/s)
Visibility: 6 or more miles (10+ km)
Ceiling: at least 12,000 feet AGL
Clouds: scattered clouds at 3500 feet AGL
Weather: NSW  (no significant weather)